Historique des mesures à Cassis (13260), France
Quotidien Résumé Mars 25, 2018 Unités:  Métrique    US   Métrique/US
« Précédent (Jour)
Suivant (Jour) »
Quotidien Hebdomadaire Mensuel Annuel Période au choix
  Maximum: Minimum: Moyenne:
Température: TemperatureC °C 9.8 °C 11.9 °C
Point de rosée: DewpointC °C 1.4 °C 3.2 °C
Humidité: Humidity % 48 % 52 %
Vitesse du vent: 0 km/h 0 km/h 5.1 km/h
Rafales: 0 km/h - -
Vent:- - SSE
Pression: PressurehPa hPa 998.2 hPa -
Précipitations: 0.0 mm    
Historical Graphs
 
 
Mesures pour : Mars 25, 2018
Heure Temperature Point de rosée Pression Vent Vitesse du vent Rafales Humidité Pluie (par heure) Conditions
TemperatureC °C DewpointC °C PressurehPa hPa Calm     Humidity % HourlyPrecipMM mm SoftwareType W/m2
00:12 11.3 °C 2.5 °C 998.2 hPa ESE 7.6 km/h 23 km/h 55 % 0.0 mm open2300-1.11 W/m2
01:12 11.0 °C 1.8 °C 998.5 hPa ENE 5.6 km/h 11.6 km/h 53 % 0.0 mm open2300-1.11 W/m2
03:10 10.9 °C 1.4 °C 998.9 hPa ESE 5.1 km/h 10.3 km/h 52 % 0.0 mm open2300-1.11 W/m2
03:11 11.0 °C 1.5 °C 998.5 hPa East 4.2 km/h 5.6 km/h 52 % 0.0 mm open2300-1.11 W/m2
05:12 10.6 °C 1.7 °C 999.2 hPa North 3.4 km/h 8 km/h 54 % 0.0 mm open2300-1.11 W/m2
06:11 10.9 °C 1.9 °C 999.5 hPa Calm     54 % 0.0 mm open2300-1.11 W/m2
07:10 10.5 °C 1.8 °C 999.9 hPa Calm     55 % 0.0 mm open2300-1.11 W/m2
08:10 9.8 °C 1.4 °C 1000.9 hPa NE 2.3 km/h 4.2 km/h 56 % 0.0 mm open2300-1.11 W/m2
09:10 11.4 °C 2.6 °C 1001.9 hPa NNE 3.4 km/h 5.1 km/h 55 % 0.0 mm open2300-1.11 W/m2
10:10 11.7 °C 2.7 °C 1002.3 hPa NW 8 km/h 8 km/h 54 % 0.0 mm open2300-1.11 W/m2
11:10 14.1 °C 4.2 °C 1002.6 hPa Calm     51 % 0.0 mm open2300-1.11 W/m2
12:10 15.1 °C 4.8 °C 1002.9 hPa SE 2.9 km/h 2.9 km/h 50 % 0.0 mm open2300-1.11 W/m2
13:10 15.9 °C 4.9 °C 1002.9 hPa South 8 km/h 8 km/h 48 % 0.0 mm open2300-1.11 W/m2
14:10 14.3 °C 4.3 °C 1003.3 hPa Calm     51 % 0.0 mm open2300-1.11 W/m2
16:10 14.4 °C 4.9 °C 1002.9 hPa WNW 7.6 km/h 7.6 km/h 53 % 0.0 mm open2300-1.11 W/m2
17:12 15.6 °C 6.0 °C 1003.3 hPa West 6.4 km/h 30.7 km/h 53 % 0.0 mm open2300-1.11 W/m2
18:12 13.8 °C 4.4 °C 1003.3 hPa West 14.5 km/h 14.5 km/h 53 % 0.0 mm open2300-1.11 W/m2
19:12 13.2 °C 4.3 °C 1003.6 hPa WSW 28.5 km/h 28.5 km/h 55 % 0.0 mm open2300-1.11 W/m2
20:12 13.3 °C 4.7 °C 1004.3 hPa SW 9.8 km/h 9.8 km/h 56 % 0.0 mm open2300-1.11 W/m2
21:12 12.5 °C 4.7 °C 1004.6 hPa Calm     59 % 0.0 mm open2300-1.11 W/m2
22:12 11.4 °C 4.1 °C 1004.6 hPa Calm     61 % 0.0 mm open2300-1.11 W/m2
23:11 10.6 °C 4.1 °C 1004.3 hPa Calm   2.9 km/h 64 % 0.0 mm open2300-1.11 W/m2
Observations météo à CASSIS
WU-History script by Weather Underground - 1 mb